createdAt,value
2024-01-24T05:01:54.605Z,95.90
2024-01-24T05:04:21.439Z,95.90
2024-01-24T05:06:48.323Z,95.90
2024-01-24T05:09:18.235Z,96.60
2024-01-24T05:11:45.030Z,96.70
2024-01-24T05:14:11.803Z,96.80
2024-01-24T05:16:42.387Z,96.70
2024-01-24T05:19:09.775Z,96.90
2024-01-24T05:21:43.173Z,97.10
2024-01-24T05:24:11.238Z,97.30
2024-01-24T05:26:38.746Z,97.60
2024-01-24T05:29:07.391Z,97.50
2024-01-24T05:31:37.556Z,97.70
2024-01-24T05:34:04.467Z,97.80
2024-01-24T05:36:31.492Z,97.90
2024-01-24T05:38:58.290Z,97.90
2024-01-24T05:41:25.036Z,98.10
2024-01-24T05:43:51.854Z,98.00
2024-01-24T05:46:18.618Z,98.20
2024-01-24T05:48:45.709Z,98.20
2024-01-24T05:51:12.996Z,98.30
2024-01-24T05:53:42.937Z,98.50
2024-01-24T05:56:10.426Z,98.50
2024-01-24T05:58:38.518Z,98.60
2024-01-24T06:01:06.922Z,98.40
2024-01-24T06:03:36.887Z,98.40
2024-01-24T06:06:04.159Z,98.40
2024-01-24T06:08:32.508Z,98.40
2024-01-24T06:10:59.974Z,98.40
2024-01-24T06:13:26.874Z,98.60
2024-01-24T06:15:53.660Z,98.70
2024-01-24T06:18:20.654Z,98.80
2024-01-24T06:20:48.195Z,98.50
2024-01-24T06:23:14.972Z,98.60
2024-01-24T06:25:41.890Z,98.80
2024-01-24T06:28:08.766Z,98.80
2024-01-24T06:30:35.568Z,98.80
2024-01-24T06:33:02.454Z,98.80
2024-01-24T06:35:30.364Z,98.70
2024-01-24T06:37:57.133Z,98.80
2024-01-24T06:40:24.112Z,98.90
2024-01-24T06:42:51.556Z,99.20
2024-01-24T06:45:18.829Z,99.80
2024-01-24T06:47:46.694Z,100.00
2024-01-24T06:50:14.777Z,100.00
2024-01-24T06:52:42.041Z,100.00
2024-01-24T06:55:09.990Z,100.00
2024-01-24T06:57:36.883Z,100.00
2024-01-24T07:00:06.013Z,100.00
2024-01-24T07:02:33.321Z,100.00
2024-01-24T07:05:04.256Z,100.00
2024-01-24T07:07:31.208Z,100.00
2024-01-24T07:09:58.422Z,100.00
2024-01-24T07:12:25.375Z,100.00
2024-01-24T07:14:53.375Z,100.00
2024-01-24T07:17:21.168Z,100.00
2024-01-24T07:19:48.885Z,100.00
2024-01-24T07:22:17.258Z,100.00
2024-01-24T07:24:47.628Z,100.00
2024-01-24T07:27:14.469Z,100.00
2024-01-24T07:29:41.240Z,100.00
2024-01-24T07:32:07.937Z,100.00
2024-01-24T07:34:34.825Z,100.00
2024-01-24T07:37:01.783Z,100.00
2024-01-24T07:39:29.718Z,100.00
2024-01-24T07:41:57.152Z,100.00
2024-01-24T07:44:24.247Z,100.00
2024-01-24T07:46:51.119Z,100.00
2024-01-24T07:49:18.660Z,100.00
2024-01-24T07:51:47.780Z,100.00
2024-01-24T07:54:15.237Z,100.00
2024-01-24T07:56:43.227Z,100.00
2024-01-24T07:59:10.253Z,100.00
2024-01-24T08:01:37.478Z,100.00
2024-01-24T08:04:04.538Z,100.00
2024-01-24T08:06:31.627Z,100.00
2024-01-24T08:08:58.450Z,100.00
2024-01-24T08:11:26.036Z,100.00
2024-01-24T08:13:53.209Z,100.00
2024-01-24T08:16:20.425Z,100.00
2024-01-24T08:18:47.292Z,100.00
2024-01-24T08:21:14.785Z,100.00
2024-01-24T08:23:48.842Z,100.00
2024-01-24T08:26:18.194Z,100.00
2024-01-24T08:28:45.096Z,100.00
2024-01-24T08:31:15.132Z,100.00
2024-01-24T08:33:42.025Z,100.00
2024-01-24T08:36:08.954Z,100.00
2024-01-24T08:38:35.918Z,100.00
2024-01-24T08:41:03.470Z,100.00
2024-01-24T08:43:30.897Z,100.00
2024-01-24T08:45:57.738Z,100.00
2024-01-24T08:48:26.131Z,100.00
2024-01-24T08:50:53.337Z,100.00
2024-01-24T08:53:20.136Z,100.00
2024-01-24T08:55:47.104Z,100.00
2024-01-24T08:58:14.059Z,100.00
2024-01-24T09:00:41.264Z,100.00
2024-01-24T09:03:08.330Z,100.00
2024-01-24T09:05:35.243Z,100.00
2024-01-24T09:08:02.990Z,100.00
2024-01-24T09:10:30.273Z,100.00
2024-01-24T09:12:57.257Z,100.00
2024-01-24T09:15:24.267Z,100.00
2024-01-24T09:17:51.699Z,100.00
2024-01-24T09:20:19.009Z,100.00
2024-01-24T09:22:46.554Z,100.00
2024-01-24T09:25:14.880Z,100.00
2024-01-24T09:27:42.406Z,100.00
2024-01-24T09:30:09.378Z,100.00
2024-01-24T09:32:36.212Z,100.00
2024-01-24T09:35:03.267Z,100.00
2024-01-24T09:37:30.377Z,100.00
2024-01-24T09:39:57.702Z,100.00
2024-01-24T09:42:27.980Z,100.00
2024-01-24T09:44:59.436Z,100.00
2024-01-24T09:47:27.267Z,100.00
2024-01-24T09:49:54.361Z,100.00
2024-01-24T09:52:26.521Z,100.00
2024-01-24T09:55:00.684Z,100.00
2024-01-24T09:57:28.590Z,100.00
2024-01-24T09:59:55.800Z,100.00
2024-01-24T10:02:23.297Z,100.00
2024-01-24T10:04:53.238Z,100.00
2024-01-24T10:07:20.667Z,100.00
2024-01-24T10:09:48.152Z,100.00
2024-01-24T10:12:14.902Z,100.00
2024-01-24T10:14:42.330Z,100.00
2024-01-24T10:17:13.600Z,100.00
2024-01-24T10:19:41.139Z,100.00
2024-01-24T10:22:10.663Z,100.00
2024-01-24T10:24:38.444Z,100.00
2024-01-24T10:27:05.832Z,100.00
2024-01-24T10:29:32.812Z,100.00
2024-01-24T10:32:00.317Z,100.00
2024-01-24T10:34:31.753Z,100.00
2024-01-24T10:37:00.146Z,100.00
2024-01-24T10:39:28.211Z,100.00
2024-01-24T10:41:58.680Z,100.00
2024-01-24T10:44:26.481Z,100.00
2024-01-24T10:46:53.912Z,100.00
2024-01-24T10:49:24.252Z,100.00
2024-01-24T10:51:52.694Z,100.00
2024-01-24T10:54:22.241Z,100.00
2024-01-24T10:56:51.246Z,100.00
2024-01-24T10:59:18.996Z,100.00
2024-01-24T11:01:46.458Z,100.00
2024-01-24T11:04:17.239Z,100.00
2024-01-24T11:06:56.076Z,100.00
2024-01-24T11:09:34.310Z,100.00
2024-01-24T11:12:01.352Z,100.00
2024-01-24T11:14:35.908Z,100.00
2024-01-24T11:17:05.378Z,100.00
2024-01-24T11:19:32.736Z,100.00
2024-01-24T11:22:12.622Z,100.00
2024-01-24T11:24:44.792Z,100.00
2024-01-24T11:27:38.910Z,100.00
2024-01-24T11:30:13.024Z,100.00
2024-01-24T11:32:46.014Z,100.00
2024-01-24T11:35:31.794Z,100.00
2024-01-24T11:38:13.003Z,100.00
2024-01-24T11:40:51.644Z,100.00
2024-01-24T11:43:30.282Z,100.00
2024-01-24T11:46:03.504Z,100.00
2024-01-24T11:48:32.988Z,100.00
2024-01-24T11:51:02.044Z,100.00
2024-01-24T11:53:29.523Z,100.00
2024-01-24T11:56:02.787Z,100.00
2024-01-24T11:58:30.306Z,100.00
2024-01-24T12:00:59.625Z,100.00
2024-01-24T12:03:27.288Z,100.00
2024-01-24T12:05:54.630Z,100.00
2024-01-24T12:08:22.092Z,100.00
2024-01-24T12:10:49.191Z,100.00
2024-01-24T12:13:17.389Z,100.00
2024-01-24T12:15:45.394Z,100.00
2024-01-24T12:18:19.307Z,100.00
2024-01-24T12:20:49.529Z,100.00
2024-01-24T12:23:17.762Z,100.00
2024-01-24T12:25:45.060Z,99.40
2024-01-24T12:28:13.227Z,100.00
2024-01-24T12:30:45.944Z,99.80
2024-01-24T12:33:15.574Z,98.20
2024-01-24T12:35:50.517Z,98.40
2024-01-24T12:38:18.106Z,95.40
2024-01-24T12:40:53.481Z,95.40
2024-01-24T12:43:23.100Z,96.00
2024-01-24T12:45:51.658Z,95.20
2024-01-24T12:48:19.819Z,94.80
2024-01-24T12:50:50.310Z,95.70
2024-01-24T12:53:17.439Z,96.10
2024-01-24T12:55:44.317Z,96.10
2024-01-24T12:58:11.158Z,95.70
2024-01-24T13:00:38.263Z,95.30
2024-01-24T13:03:06.350Z,95.30
2024-01-24T13:05:42.072Z,96.20
2024-01-24T13:08:13.554Z,96.20
2024-01-24T13:10:44.300Z,94.70
2024-01-24T13:13:11.973Z,96.50
2024-01-24T13:15:40.301Z,95.50
2024-01-24T13:18:14.876Z,93.90
2024-01-24T13:20:41.650Z,93.30
2024-01-24T13:23:08.509Z,93.10
2024-01-24T13:25:35.518Z,94.20
2024-01-24T13:28:03.879Z,93.20
2024-01-24T13:30:31.327Z,92.40
2024-01-24T13:32:58.526Z,90.70
2024-01-24T13:35:25.685Z,90.20
2024-01-24T13:37:53.206Z,89.90
2024-01-24T13:40:20.392Z,90.00
2024-01-24T13:42:47.772Z,89.50
2024-01-24T13:45:15.690Z,90.60
2024-01-24T13:47:42.627Z,90.10
2024-01-24T13:50:11.089Z,89.40
2024-01-24T13:52:38.842Z,88.40
2024-01-24T13:55:09.377Z,87.80
2024-01-24T13:57:38.937Z,87.20
2024-01-24T14:00:12.667Z,87.00
2024-01-24T14:02:40.046Z,85.90
2024-01-24T14:05:10.169Z,85.20
2024-01-24T14:07:39.840Z,84.60
2024-01-24T14:10:07.380Z,82.70
2024-01-24T14:12:34.368Z,82.00
2024-01-24T14:15:05.767Z,82.20
2024-01-24T14:17:38.633Z,82.10
2024-01-24T14:20:05.975Z,83.80
2024-01-24T14:22:32.921Z,82.30
2024-01-24T14:25:01.135Z,82.90
2024-01-24T14:27:28.233Z,82.50
2024-01-24T14:29:55.808Z,84.00
2024-01-24T14:32:28.879Z,83.80
2024-01-24T14:34:56.116Z,83.30
2024-01-24T14:37:28.890Z,83.00
2024-01-24T14:39:57.011Z,82.50
2024-01-24T14:42:24.387Z,82.70
2024-01-24T14:44:51.836Z,84.00
2024-01-24T14:47:26.150Z,83.30
2024-01-24T14:49:53.240Z,82.10
2024-01-24T14:52:20.107Z,83.40
2024-01-24T14:54:46.974Z,83.30
2024-01-24T14:57:14.072Z,83.50
2024-01-24T14:59:41.968Z,81.40
2024-01-24T15:02:09.807Z,80.40
2024-01-24T15:04:38.112Z,79.80
2024-01-24T15:07:05.778Z,81.60
2024-01-24T15:09:34.711Z,81.10
2024-01-24T15:12:03.300Z,81.00
2024-01-24T15:14:30.523Z,80.50
2024-01-24T15:16:58.354Z,81.80
2024-01-24T15:19:25.640Z,81.70
2024-01-24T15:21:53.645Z,81.30
2024-01-24T15:24:21.801Z,81.20
2024-01-24T15:26:48.895Z,81.50
2024-01-24T15:29:17.114Z,82.30
2024-01-24T15:31:44.202Z,81.90
2024-01-24T15:34:15.533Z,82.50
2024-01-24T15:36:43.233Z,82.80
2024-01-24T15:39:13.263Z,82.60
2024-01-24T15:41:42.308Z,83.20
2024-01-24T15:44:09.869Z,84.00
2024-01-24T15:46:37.243Z,84.10
2024-01-24T15:49:04.240Z,85.00
2024-01-24T15:51:31.726Z,85.40
2024-01-24T15:53:58.528Z,84.60
2024-01-24T15:56:25.336Z,85.40
2024-01-24T15:58:52.512Z,85.30
2024-01-24T16:01:20.147Z,86.20
2024-01-24T16:03:47.157Z,86.40
2024-01-24T16:06:14.445Z,85.80
2024-01-24T16:08:41.668Z,85.60
2024-01-24T16:11:09.153Z,85.40
2024-01-24T16:13:36.081Z,85.60
2024-01-24T16:16:03.503Z,85.40
2024-01-24T16:18:30.814Z,85.60
2024-01-24T16:20:57.939Z,85.60
2024-01-24T16:23:24.744Z,85.90
2024-01-24T16:25:51.582Z,86.50
2024-01-24T16:28:18.708Z,86.70
2024-01-24T16:30:45.794Z,86.80
2024-01-24T16:33:12.635Z,87.10
2024-01-24T16:35:39.448Z,86.90
2024-01-24T16:38:06.584Z,87.00
2024-01-24T16:40:33.390Z,87.40
2024-01-24T16:43:00.232Z,87.40
2024-01-24T16:45:27.160Z,87.70
2024-01-24T16:47:54.036Z,88.00
2024-01-24T16:50:20.963Z,87.70
2024-01-24T16:52:48.236Z,87.50
2024-01-24T16:55:15.598Z,87.60
2024-01-24T16:57:42.731Z,87.90
2024-01-24T17:00:10.401Z,87.20
2024-01-24T17:02:43.016Z,87.80
2024-01-24T17:05:13.783Z,87.60
2024-01-24T17:07:40.729Z,87.60
2024-01-24T17:10:07.876Z,88.30
2024-01-24T17:12:34.726Z,87.70
2024-01-24T17:15:01.648Z,87.40
2024-01-24T17:17:28.525Z,87.80
2024-01-24T17:19:55.631Z,88.00
2024-01-24T17:22:23.056Z,88.60
2024-01-24T17:24:50.375Z,87.70
2024-01-24T17:27:18.121Z,87.70
2024-01-24T17:29:46.561Z,88.30
2024-01-24T17:32:13.413Z,87.20
2024-01-24T17:34:41.822Z,88.00
2024-01-24T17:37:10.192Z,87.40
2024-01-24T17:39:37.060Z,88.10
2024-01-24T17:42:04.150Z,87.60
2024-01-24T17:44:32.733Z,87.40
2024-01-24T17:46:59.805Z,87.60
2024-01-24T17:49:27.241Z,87.70
2024-01-24T17:51:54.567Z,87.50
2024-01-24T17:54:21.654Z,87.50
2024-01-24T17:56:48.652Z,87.90
2024-01-24T17:59:15.510Z,87.90
2024-01-24T18:01:42.587Z,87.40
2024-01-24T18:04:09.504Z,87.90
2024-01-24T18:06:36.312Z,86.50
2024-01-24T18:09:03.368Z,86.90
2024-01-24T18:11:30.250Z,86.60
2024-01-24T18:13:56.966Z,87.30
2024-01-24T18:16:24.318Z,87.40
2024-01-24T18:18:52.098Z,87.30
2024-01-24T18:21:19.010Z,87.40
2024-01-24T18:23:45.819Z,87.00
2024-01-24T18:26:12.614Z,86.40
2024-01-24T18:28:39.381Z,86.10
2024-01-24T18:31:06.266Z,87.00
2024-01-24T18:33:33.334Z,86.70
2024-01-24T18:36:00.231Z,86.90
2024-01-24T18:38:27.164Z,86.60
2024-01-24T18:40:53.970Z,86.80
2024-01-24T18:43:20.787Z,86.00
2024-01-24T18:45:47.740Z,86.80
2024-01-24T18:48:18.984Z,86.90
2024-01-24T18:50:46.250Z,86.60
2024-01-24T18:53:13.258Z,86.50
2024-01-24T18:55:40.140Z,86.70
2024-01-24T18:58:06.963Z,87.00
2024-01-24T19:00:34.145Z,86.90
2024-01-24T19:03:01.070Z,86.90
2024-01-24T19:05:36.751Z,86.90
2024-01-24T19:08:06.660Z,87.50
2024-01-24T19:10:33.397Z,86.90
2024-01-24T19:13:00.420Z,87.40
2024-01-24T19:15:28.218Z,87.40
2024-01-24T19:17:55.928Z,87.60
2024-01-24T19:20:23.133Z,88.10
2024-01-24T19:22:50.025Z,87.60
2024-01-24T19:25:16.855Z,87.80
2024-01-24T19:27:43.754Z,87.50
2024-01-24T19:30:11.138Z,87.70
2024-01-24T19:32:38.340Z,87.20
2024-01-24T19:35:05.642Z,86.80
2024-01-24T19:37:33.997Z,87.10
2024-01-24T19:40:01.752Z,87.30
2024-01-24T19:42:28.747Z,87.00
2024-01-24T19:44:55.873Z,86.90
2024-01-24T19:47:29.011Z,86.90
2024-01-24T19:49:57.090Z,86.60
2024-01-24T19:52:24.292Z,86.80
2024-01-24T19:54:51.916Z,86.90
2024-01-24T19:57:18.904Z,86.90
2024-01-24T19:59:45.828Z,86.90
2024-01-24T20:02:12.656Z,86.70
2024-01-24T20:04:39.755Z,87.20
2024-01-24T20:07:06.730Z,87.10
2024-01-24T20:09:34.253Z,86.90
2024-01-24T20:12:01.382Z,87.20
2024-01-24T20:14:29.278Z,87.40
2024-01-24T20:16:56.577Z,87.10
2024-01-24T20:19:23.468Z,87.50
2024-01-24T20:21:50.789Z,87.60
2024-01-24T20:24:19.916Z,87.90
2024-01-24T20:26:46.881Z,88.10
2024-01-24T20:29:13.722Z,88.50
2024-01-24T20:31:40.621Z,89.50
2024-01-24T20:34:07.753Z,90.10
2024-01-24T20:36:35.772Z,90.60
2024-01-24T20:39:02.883Z,90.90
2024-01-24T20:41:30.410Z,91.70
2024-01-24T20:43:57.221Z,91.70
2024-01-24T20:46:24.015Z,91.90
2024-01-24T20:48:51.184Z,91.70
2024-01-24T20:51:18.133Z,91.70
2024-01-24T20:53:44.939Z,91.90
2024-01-24T20:56:13.438Z,91.90
2024-01-24T20:58:41.670Z,91.90
2024-01-24T21:01:08.529Z,91.90
2024-01-24T21:03:35.536Z,91.90
2024-01-24T21:06:02.478Z,91.90
2024-01-24T21:08:30.672Z,91.90
2024-01-24T21:11:02.990Z,91.90
2024-01-24T21:13:31.479Z,91.90
2024-01-24T21:15:58.925Z,92.10
2024-01-24T21:18:27.326Z,92.20
2024-01-24T21:20:54.588Z,92.00
2024-01-24T21:23:21.443Z,91.80
2024-01-24T21:25:48.240Z,91.80
2024-01-24T21:28:15.280Z,92.10
2024-01-24T21:30:42.298Z,91.80
2024-01-24T21:33:09.332Z,92.00
2024-01-24T21:35:36.228Z,92.00
2024-01-24T21:38:03.067Z,91.90
2024-01-24T21:40:29.902Z,92.20
2024-01-24T21:42:57.272Z,92.30
2024-01-24T21:45:24.094Z,92.30
2024-01-24T21:47:50.941Z,92.60
2024-01-24T21:50:17.817Z,92.40
2024-01-24T21:52:44.924Z,92.30
2024-01-24T21:55:11.930Z,92.60
2024-01-24T21:57:38.986Z,92.70
2024-01-24T22:00:07.562Z,92.50
2024-01-24T22:02:34.375Z,92.80
2024-01-24T22:05:01.192Z,92.70
2024-01-24T22:07:28.123Z,92.80
2024-01-24T22:09:55.618Z,93.20
2024-01-24T22:12:22.596Z,93.20
2024-01-24T22:14:49.368Z,93.20
2024-01-24T22:17:16.178Z,93.10
2024-01-24T22:19:43.044Z,93.10
2024-01-24T22:22:09.975Z,92.90
2024-01-24T22:24:36.872Z,93.10
2024-01-24T22:27:03.805Z,93.40
2024-01-24T22:29:30.532Z,93.70
2024-01-24T22:31:57.362Z,93.80
2024-01-24T22:34:25.492Z,93.90
2024-01-24T22:36:52.348Z,94.10
2024-01-24T22:39:20.290Z,94.20
2024-01-24T22:41:48.302Z,94.30
2024-01-24T22:44:15.389Z,94.60
2024-01-24T22:46:42.312Z,94.50
2024-01-24T22:49:11.329Z,94.80
2024-01-24T22:51:39.256Z,94.80
2024-01-24T22:54:07.151Z,95.10
2024-01-24T22:56:34.086Z,95.20
2024-01-24T22:59:00.932Z,95.30
2024-01-24T23:01:29.183Z,95.60
2024-01-24T23:03:56.260Z,95.90
2024-01-24T23:06:23.431Z,95.90
2024-01-24T23:08:50.244Z,96.00
2024-01-24T23:11:18.068Z,95.90
2024-01-24T23:13:44.903Z,95.90
2024-01-24T23:16:12.029Z,95.90
2024-01-24T23:18:38.803Z,96.00
2024-01-24T23:21:05.722Z,96.20
2024-01-24T23:23:32.467Z,96.00
2024-01-24T23:25:59.328Z,96.00
2024-01-24T23:28:26.235Z,96.00
2024-01-24T23:30:53.070Z,96.00
2024-01-24T23:33:20.144Z,96.20
2024-01-24T23:35:47.086Z,96.40
2024-01-24T23:38:13.962Z,96.70
2024-01-24T23:40:40.719Z,97.00
2024-01-24T23:43:07.523Z,97.10
2024-01-24T23:45:34.364Z,97.40
2024-01-24T23:48:03.258Z,97.30
2024-01-24T23:50:30.318Z,97.30
2024-01-24T23:52:58.611Z,97.30
2024-01-24T23:55:26.552Z,97.60
2024-01-24T23:57:55.115Z,97.60
